createdAt,value
2018-12-30T00:00:28.455Z,1011.39
2018-12-30T00:01:32.626Z,1011.41
2018-12-30T00:02:36.920Z,1011.44
2018-12-30T00:03:41.165Z,1011.44
2018-12-30T00:04:45.371Z,1011.43
2018-12-30T00:05:52.416Z,1011.43
2018-12-30T00:06:55.581Z,1011.43
2018-12-30T00:07:59.808Z,1011.43
2018-12-30T00:09:04.056Z,1011.42
2018-12-30T00:10:08.256Z,1011.45
2018-12-30T00:11:12.544Z,1011.42
2018-12-30T00:12:16.768Z,1011.42
2018-12-30T00:13:20.976Z,1011.43
2018-12-30T00:14:25.198Z,1011.45
2018-12-30T00:15:29.419Z,1011.48
2018-12-30T00:16:33.776Z,1011.47
2018-12-30T00:17:37.973Z,1011.50
2018-12-30T00:18:42.143Z,1011.51
2018-12-30T00:19:46.340Z,1011.53
2018-12-30T00:20:50.628Z,1011.53
2018-12-30T00:21:54.855Z,1011.51
2018-12-30T00:22:59.007Z,1011.52
2018-12-30T00:24:03.315Z,1011.54
2018-12-30T00:25:07.528Z,1011.53
2018-12-30T00:26:11.753Z,1011.56
2018-12-30T00:27:15.988Z,1011.56
2018-12-30T00:28:20.144Z,1011.60
2018-12-30T00:29:24.351Z,1011.61
2018-12-30T00:30:28.592Z,1011.61
2018-12-30T00:31:32.619Z,1011.63
2018-12-30T00:32:36.976Z,1011.65
2018-12-30T00:33:41.130Z,1011.65
2018-12-30T00:34:45.440Z,1011.68
2018-12-30T00:35:49.700Z,1011.67
2018-12-30T00:36:53.851Z,1011.72
2018-12-30T00:37:58.037Z,1011.72
2018-12-30T00:39:02.392Z,1011.66
2018-12-30T00:40:06.641Z,1011.72
2018-12-30T00:41:10.899Z,1011.70
2018-12-30T00:42:15.053Z,1011.76
2018-12-30T00:43:19.338Z,1011.77
2018-12-30T00:44:23.579Z,1011.81
2018-12-30T00:45:27.594Z,1011.81
2018-12-30T00:46:31.948Z,1011.84
2018-12-30T00:47:36.208Z,1011.85
2018-12-30T00:48:40.456Z,1011.87
2018-12-30T00:49:44.604Z,1011.88
2018-12-30T00:50:48.774Z,1011.90
2018-12-30T00:51:52.954Z,1011.91
2018-12-30T00:52:57.294Z,1011.93
2018-12-30T00:54:01.451Z,1011.97
2018-12-30T00:55:05.778Z,1011.96
2018-12-30T00:56:10.008Z,1012.00
2018-12-30T00:57:14.223Z,1012.02
2018-12-30T00:58:18.372Z,1012.04
2018-12-30T00:59:22.662Z,1012.03
2018-12-30T01:00:26.920Z,1012.03
2018-12-30T01:01:31.028Z,1012.04
2018-12-30T01:02:35.244Z,1012.12
2018-12-30T01:03:39.563Z,1012.11
2018-12-30T01:04:43.743Z,1012.11
2018-12-30T01:05:48.022Z,1012.12
2018-12-30T01:06:52.232Z,1012.14
2018-12-30T01:07:56.309Z,1012.14
2018-12-30T01:09:00.696Z,1012.11
2018-12-30T01:10:04.950Z,1012.12
2018-12-30T01:11:09.067Z,1012.15
2018-12-30T01:12:13.372Z,1012.13
2018-12-30T01:13:17.578Z,1012.18
2018-12-30T01:14:21.784Z,1012.20
2018-12-30T01:15:25.974Z,1012.20
2018-12-30T01:16:30.188Z,1012.21
2018-12-30T01:17:34.449Z,1012.24
2018-12-30T01:18:38.689Z,1012.25
2018-12-30T01:19:42.974Z,1012.24
2018-12-30T01:20:47.104Z,1012.25
2018-12-30T01:21:51.397Z,1012.26
2018-12-30T01:22:55.636Z,1012.28
2018-12-30T01:23:59.831Z,1012.28
2018-12-30T01:25:04.060Z,1012.32
2018-12-30T01:26:08.349Z,1012.31
2018-12-30T01:27:12.620Z,1012.35
2018-12-30T01:28:16.903Z,1012.34
2018-12-30T01:29:21.156Z,1012.35
2018-12-30T01:30:25.318Z,1012.36
2018-12-30T01:31:29.594Z,1012.38
2018-12-30T01:32:33.748Z,1012.38
2018-12-30T01:33:37.932Z,1012.41
2018-12-30T01:34:42.070Z,1012.40
2018-12-30T01:35:46.442Z,1012.44
2018-12-30T01:36:50.716Z,1012.41
2018-12-30T01:37:54.942Z,1012.45
2018-12-30T01:38:59.101Z,1012.45
2018-12-30T01:40:03.424Z,1012.49
2018-12-30T01:41:07.564Z,1012.50
2018-12-30T01:42:11.835Z,1012.52
2018-12-30T01:43:15.868Z,1012.51
2018-12-30T01:44:20.162Z,1012.52
2018-12-30T01:45:24.459Z,1012.55
2018-12-30T01:46:28.689Z,1012.55
2018-12-30T01:47:32.891Z,1012.54
2018-12-30T01:48:37.161Z,1012.55
2018-12-30T01:49:41.437Z,1012.61
2018-12-30T01:50:45.638Z,1012.56
2018-12-30T01:51:49.904Z,1012.64
2018-12-30T01:52:54.156Z,1012.62
2018-12-30T01:53:58.383Z,1012.69
2018-12-30T01:55:02.570Z,1012.68
2018-12-30T01:56:06.831Z,1012.69
2018-12-30T01:57:11.113Z,1012.70
2018-12-30T01:58:15.250Z,1012.73
2018-12-30T01:59:19.551Z,1012.72
2018-12-30T02:00:23.833Z,1012.73
2018-12-30T02:01:28.020Z,1012.77
2018-12-30T02:02:32.224Z,1012.80
2018-12-30T02:03:36.428Z,1012.83
2018-12-30T02:04:40.619Z,1012.84
2018-12-30T02:05:44.944Z,1012.87
2018-12-30T02:06:49.209Z,1012.90
2018-12-30T02:07:53.465Z,1012.88
2018-12-30T02:08:57.729Z,1012.90
2018-12-30T02:10:01.904Z,1012.91
2018-12-30T02:11:06.190Z,1012.92
2018-12-30T02:12:10.437Z,1012.91
2018-12-30T02:13:14.688Z,1013.00
2018-12-30T02:14:18.947Z,1012.94
2018-12-30T02:15:23.206Z,1013.00
2018-12-30T02:16:27.417Z,1012.96
2018-12-30T02:17:31.563Z,1012.95
2018-12-30T02:18:35.780Z,1013.00
2018-12-30T02:19:40.075Z,1013.03
2018-12-30T02:20:44.367Z,1013.07
2018-12-30T02:21:48.389Z,1013.04
2018-12-30T02:22:52.742Z,1013.08
2018-12-30T02:23:57.032Z,1013.06
2018-12-30T02:25:01.313Z,1013.09
2018-12-30T02:26:05.556Z,1013.07
2018-12-30T02:27:09.831Z,1013.07
2018-12-30T02:28:13.944Z,1013.10
2018-12-30T02:29:18.233Z,1013.13
2018-12-30T02:30:22.520Z,1013.12
2018-12-30T02:31:26.683Z,1013.14
2018-12-30T02:32:30.888Z,1013.14
2018-12-30T02:33:35.054Z,1013.16
2018-12-30T02:34:39.262Z,1013.18
2018-12-30T02:35:43.623Z,1013.17
2018-12-30T02:36:47.772Z,1013.20
2018-12-30T02:37:52.030Z,1013.29
2018-12-30T02:38:56.222Z,1013.30
2018-12-30T02:40:00.469Z,1013.26
2018-12-30T02:41:04.658Z,1013.30
2018-12-30T02:42:08.837Z,1013.34
2018-12-30T02:43:13.064Z,1013.34
2018-12-30T02:44:17.374Z,1013.34
2018-12-30T02:45:21.639Z,1013.43
2018-12-30T02:46:25.935Z,1013.46
2018-12-30T02:47:30.139Z,1013.51
2018-12-30T02:48:34.375Z,1013.53
2018-12-30T02:49:38.488Z,1013.53
2018-12-30T02:50:42.583Z,1013.59
2018-12-30T02:51:50.394Z,1013.58
2018-12-30T02:52:51.640Z,1013.59
2018-12-30T02:53:58.765Z,1013.57
2018-12-30T02:55:05.013Z,1013.60
2018-12-30T02:56:11.348Z,1013.69
2018-12-30T02:57:14.592Z,1013.64
2018-12-30T02:58:18.738Z,1013.61
2018-12-30T02:59:22.908Z,1013.69
2018-12-30T03:00:27.208Z,1013.69
2018-12-30T03:01:31.355Z,1013.73
2018-12-30T03:02:35.565Z,1013.77
2018-12-30T03:03:39.876Z,1013.79
2018-12-30T03:04:44.027Z,1013.87
2018-12-30T03:05:48.351Z,1013.92
2018-12-30T03:06:52.591Z,1013.93
2018-12-30T03:07:56.743Z,1013.94
2018-12-30T03:09:01.046Z,1013.97
2018-12-30T03:10:05.282Z,1013.95
2018-12-30T03:11:09.578Z,1014.02
2018-12-30T03:12:13.818Z,1014.02
2018-12-30T03:13:18.080Z,1014.02
2018-12-30T03:14:22.316Z,1014.08
2018-12-30T03:15:26.490Z,1014.06
2018-12-30T03:16:30.706Z,1014.07
2018-12-30T03:17:35.011Z,1014.08
2018-12-30T03:18:39.156Z,1014.12
2018-12-30T03:19:43.372Z,1014.18
2018-12-30T03:20:47.609Z,1014.25
2018-12-30T03:21:59.122Z,1014.20
2018-12-30T03:22:55.979Z,1014.20
2018-12-30T03:24:00.258Z,1014.23
2018-12-30T03:25:04.492Z,1014.30
2018-12-30T03:26:08.747Z,1014.31
2018-12-30T03:27:12.955Z,1014.41
2018-12-30T03:28:17.145Z,1014.34
2018-12-30T03:29:21.295Z,1014.37
2018-12-30T03:30:25.447Z,1014.38
2018-12-30T03:31:29.751Z,1014.41
2018-12-30T03:32:34.017Z,1014.44
2018-12-30T03:33:38.140Z,1014.47
2018-12-30T03:34:42.361Z,1014.59
2018-12-30T03:35:46.537Z,1014.62
2018-12-30T03:36:50.742Z,1014.66
2018-12-30T03:37:55.007Z,1014.69
2018-12-30T03:38:59.267Z,1014.80
2018-12-30T03:40:03.477Z,1014.73
2018-12-30T03:41:07.662Z,1014.81
2018-12-30T03:42:11.930Z,1014.83
2018-12-30T03:43:16.159Z,1014.83
2018-12-30T03:44:20.334Z,1014.84
2018-12-30T03:45:24.631Z,1014.83
2018-12-30T03:46:28.876Z,1014.96
2018-12-30T03:47:33.035Z,1014.96
2018-12-30T03:48:37.213Z,1014.98
2018-12-30T03:49:41.300Z,1015.06
2018-12-30T03:50:45.620Z,1015.09
2018-12-30T03:51:49.893Z,1015.14
2018-12-30T03:52:53.992Z,1015.14
2018-12-30T03:53:58.214Z,1015.20
2018-12-30T03:55:02.527Z,1015.19
2018-12-30T03:56:06.766Z,1015.18
2018-12-30T03:57:11.006Z,1015.28
2018-12-30T03:58:15.123Z,1015.29
2018-12-30T03:59:19.430Z,1015.33
2018-12-30T04:00:23.598Z,1015.34
2018-12-30T04:01:27.883Z,1015.46
2018-12-30T04:02:32.065Z,1015.49
2018-12-30T04:03:36.177Z,1015.54
2018-12-30T04:04:40.429Z,1015.55
2018-12-30T04:05:44.558Z,1015.60
2018-12-30T04:06:48.749Z,1015.54
2018-12-30T04:07:52.986Z,1015.63
2018-12-30T04:08:57.098Z,1015.65
2018-12-30T04:10:02.154Z,1015.66
2018-12-30T04:11:06.000Z,1015.66
2018-12-30T04:12:10.252Z,1015.69
2018-12-30T04:13:14.453Z,1015.70
2018-12-30T04:14:18.593Z,1015.76
2018-12-30T04:15:22.752Z,1015.79
2018-12-30T04:16:27.045Z,1015.80
2018-12-30T04:17:31.290Z,1015.82
2018-12-30T04:18:35.515Z,1015.89
2018-12-30T04:19:39.615Z,1015.88
2018-12-30T04:20:43.810Z,1015.85
2018-12-30T04:21:48.116Z,1015.84
2018-12-30T04:22:52.245Z,1015.95
2018-12-30T04:23:56.497Z,1015.99
2018-12-30T04:25:00.720Z,1016.05
2018-12-30T04:26:04.894Z,1016.16
2018-12-30T04:27:09.120Z,1016.19
2018-12-30T04:28:13.315Z,1016.08
2018-12-30T04:29:17.494Z,1016.14
2018-12-30T04:30:21.650Z,1016.22
2018-12-30T04:31:25.805Z,1016.20
2018-12-30T04:32:30.078Z,1016.22
2018-12-30T04:33:34.282Z,1016.24
2018-12-30T04:34:38.534Z,1016.28
2018-12-30T04:35:42.729Z,1016.26
2018-12-30T04:36:46.970Z,1016.27
2018-12-30T04:37:51.139Z,1016.29
2018-12-30T04:38:55.293Z,1016.37
2018-12-30T04:39:59.576Z,1016.41
2018-12-30T04:41:03.797Z,1016.42
2018-12-30T04:42:08.052Z,1016.42
2018-12-30T04:43:12.167Z,1016.46
2018-12-30T04:44:16.345Z,1016.48
2018-12-30T04:45:20.486Z,1016.50
2018-12-30T04:46:24.756Z,1016.51
2018-12-30T04:47:29.036Z,1016.66
2018-12-30T04:48:33.260Z,1016.63
2018-12-30T04:49:37.361Z,1016.65
2018-12-30T04:50:41.644Z,1016.69
2018-12-30T04:51:45.762Z,1016.73
2018-12-30T04:52:50.039Z,1016.70
2018-12-30T04:53:54.252Z,1016.75
2018-12-30T04:54:58.482Z,1016.78
2018-12-30T04:56:02.695Z,1016.82
2018-12-30T04:57:06.947Z,1016.87
2018-12-30T04:58:11.208Z,1016.86
2018-12-30T04:59:15.264Z,1016.90
2018-12-30T05:00:19.449Z,1016.96
2018-12-30T05:01:23.737Z,1016.99
2018-12-30T05:02:28.028Z,1017.00
2018-12-30T05:03:32.198Z,1017.03
2018-12-30T05:04:36.447Z,1017.14
2018-12-30T05:05:40.633Z,1017.07
2018-12-30T05:06:44.847Z,1017.08
2018-12-30T05:07:49.094Z,1017.14
2018-12-30T05:08:53.306Z,1017.16
2018-12-30T05:09:57.525Z,1017.15
2018-12-30T05:11:01.698Z,1017.13
2018-12-30T05:12:05.889Z,1017.15
2018-12-30T05:13:10.058Z,1017.22
2018-12-30T05:14:14.327Z,1017.34
2018-12-30T05:15:18.572Z,1017.32
2018-12-30T05:16:22.678Z,1017.30
2018-12-30T05:17:26.896Z,1017.33
2018-12-30T05:18:31.157Z,1017.32
2018-12-30T05:19:35.200Z,1017.33
2018-12-30T05:20:39.530Z,1017.37
2018-12-30T05:21:43.733Z,1017.37
2018-12-30T05:22:47.947Z,1017.42
2018-12-30T05:23:52.155Z,1017.43
2018-12-30T05:24:56.404Z,1017.46
2018-12-30T05:26:00.642Z,1017.54
2018-12-30T05:27:04.803Z,1017.58
2018-12-30T05:28:08.962Z,1017.63
2018-12-30T05:29:13.217Z,1017.64
2018-12-30T05:30:17.437Z,1017.66
2018-12-30T05:31:21.644Z,1017.73
2018-12-30T05:32:25.857Z,1017.73
2018-12-30T05:33:30.119Z,1017.75
2018-12-30T05:34:34.346Z,1017.79
2018-12-30T05:35:38.478Z,1017.78
2018-12-30T05:36:42.755Z,1017.80
2018-12-30T05:37:46.866Z,1017.80
2018-12-30T05:38:51.138Z,1017.83
2018-12-30T05:39:55.279Z,1017.85
2018-12-30T05:40:59.415Z,1017.82
2018-12-30T05:42:03.682Z,1017.82
2018-12-30T05:43:07.890Z,1017.86
2018-12-30T05:44:12.085Z,1017.79
2018-12-30T05:45:16.218Z,1017.89
2018-12-30T05:46:20.488Z,1017.93
2018-12-30T05:47:24.678Z,1017.90
2018-12-30T05:48:28.892Z,1017.96
2018-12-30T05:49:32.971Z,1017.94
2018-12-30T05:50:37.242Z,1017.94
2018-12-30T05:51:41.427Z,1017.99
2018-12-30T05:52:45.666Z,1017.99
2018-12-30T05:53:49.892Z,1018.04
2018-12-30T05:54:54.064Z,1018.10
2018-12-30T05:55:58.228Z,1018.17
2018-12-30T05:57:02.455Z,1018.15
2018-12-30T05:58:06.695Z,1018.17
2018-12-30T05:59:10.923Z,1018.20
2018-12-30T06:00:15.135Z,1018.26
2018-12-30T06:01:19.223Z,1018.29
2018-12-30T06:02:23.424Z,1018.29
2018-12-30T06:03:27.610Z,1018.30
2018-12-30T06:04:31.847Z,1018.35
2018-12-30T06:05:36.058Z,1018.40
2018-12-30T06:06:40.279Z,1018.42
2018-12-30T06:07:44.372Z,1018.44
2018-12-30T06:08:48.629Z,1018.36
2018-12-30T06:09:52.811Z,1018.49
2018-12-30T06:10:56.962Z,1018.47
2018-12-30T06:12:01.204Z,1018.54
2018-12-30T06:13:05.408Z,1018.51
2018-12-30T06:14:09.534Z,1018.52
2018-12-30T06:15:13.681Z,1018.57
2018-12-30T06:16:17.960Z,1018.57
2018-12-30T06:17:22.204Z,1018.61
2018-12-30T06:18:26.324Z,1018.59
2018-12-30T06:19:30.591Z,1018.60
2018-12-30T06:20:34.776Z,1018.70
2018-12-30T06:21:38.882Z,1018.69
2018-12-30T06:22:49.463Z,1018.69
2018-12-30T06:23:47.318Z,1018.71
2018-12-30T06:24:51.422Z,1018.76
2018-12-30T06:25:55.559Z,1018.78
2018-12-30T06:26:59.712Z,1018.81
2018-12-30T06:28:03.855Z,1018.84
2018-12-30T06:29:08.142Z,1018.86
2018-12-30T06:30:12.332Z,1018.92
2018-12-30T06:31:16.543Z,1018.89
2018-12-30T06:32:20.761Z,1018.97
2018-12-30T06:33:24.870Z,1018.99
2018-12-30T06:34:29.122Z,1019.02
2018-12-30T06:35:33.253Z,1019.00
2018-12-30T06:36:37.412Z,1019.02
2018-12-30T06:37:41.693Z,1019.04
2018-12-30T06:38:45.900Z,1019.08
2018-12-30T06:39:50.022Z,1019.10
2018-12-30T06:40:54.229Z,1019.13
2018-12-30T06:41:58.526Z,1019.16
2018-12-30T06:43:02.637Z,1019.19
2018-12-30T06:44:06.939Z,1019.17
2018-12-30T06:45:11.048Z,1019.17
2018-12-30T06:46:15.279Z,1019.19
2018-12-30T06:47:19.503Z,1019.20
2018-12-30T06:48:23.707Z,1019.26
2018-12-30T06:49:27.845Z,1019.25
2018-12-30T06:50:32.088Z,1019.23
2018-12-30T06:51:36.188Z,1019.29
2018-12-30T06:52:40.387Z,1019.29
2018-12-30T06:53:44.645Z,1019.28
2018-12-30T06:54:48.832Z,1019.31
2018-12-30T06:55:53.069Z,1019.33
2018-12-30T06:57:03.263Z,1019.31
2018-12-30T06:58:06.023Z,1019.34
2018-12-30T06:59:10.284Z,1019.38
2018-12-30T07:00:14.362Z,1019.39
2018-12-30T07:01:18.549Z,1019.40
2018-12-30T07:02:25.794Z,1019.43
2018-12-30T07:03:29.065Z,1019.45
2018-12-30T07:04:33.323Z,1019.44
2018-12-30T07:05:37.427Z,1019.48
2018-12-30T07:06:41.645Z,1019.50
2018-12-30T07:07:45.866Z,1019.53
2018-12-30T07:08:50.051Z,1019.57
2018-12-30T07:09:54.187Z,1019.58
2018-12-30T07:10:58.421Z,1019.57
2018-12-30T07:12:02.602Z,1019.61
2018-12-30T07:13:06.819Z,1019.60
2018-12-30T07:14:11.034Z,1019.64
2018-12-30T07:15:15.271Z,1019.64
2018-12-30T07:16:19.485Z,1019.74
2018-12-30T07:17:23.670Z,1019.73
2018-12-30T07:18:27.860Z,1019.69
2018-12-30T07:19:32.003Z,1019.69
2018-12-30T07:20:36.231Z,1019.66
2018-12-30T07:21:40.440Z,1019.72
2018-12-30T07:22:44.630Z,1019.74
2018-12-30T07:23:48.726Z,1019.80
2018-12-30T07:24:52.972Z,1019.83
2018-12-30T07:25:57.087Z,1019.79
2018-12-30T07:27:01.247Z,1019.83
2018-12-30T07:28:05.386Z,1019.86
2018-12-30T07:29:09.664Z,1019.82
2018-12-30T07:30:13.820Z,1019.84
2018-12-30T07:31:18.045Z,1019.94
2018-12-30T07:32:22.140Z,1019.95
2018-12-30T07:33:26.304Z,1020.00
2018-12-30T07:34:30.562Z,1019.99
2018-12-30T07:35:34.704Z,1020.00
2018-12-30T07:36:38.873Z,1020.00
2018-12-30T07:37:43.043Z,1020.04
2018-12-30T07:38:47.307Z,1020.02
2018-12-30T07:39:51.525Z,1020.01
2018-12-30T07:40:55.715Z,1020.01
2018-12-30T07:41:59.752Z,1020.02
2018-12-30T07:43:04.075Z,1020.04
2018-12-30T07:44:08.215Z,1020.02
2018-12-30T07:45:12.497Z,1020.06
2018-12-30T07:46:16.626Z,1020.05
2018-12-30T07:47:20.779Z,1020.02
2018-12-30T07:48:24.968Z,1020.06
2018-12-30T07:49:29.128Z,1020.04
2018-12-30T07:50:33.403Z,1020.08
2018-12-30T07:51:37.552Z,1020.09
2018-12-30T07:52:41.786Z,1020.09
2018-12-30T07:53:45.968Z,1020.10
2018-12-30T07:54:50.176Z,1020.12
2018-12-30T07:55:54.392Z,1020.13
2018-12-30T07:56:58.570Z,1020.10
2018-12-30T07:58:02.621Z,1020.18
2018-12-30T07:59:06.875Z,1020.17
2018-12-30T08:00:11.124Z,1020.13
2018-12-30T08:01:15.325Z,1020.14
2018-12-30T08:02:19.500Z,1020.16
2018-12-30T08:03:23.757Z,1020.15
2018-12-30T08:04:27.948Z,1020.13
2018-12-30T08:05:32.144Z,1020.23
2018-12-30T08:06:36.372Z,1020.26
2018-12-30T08:07:40.469Z,1020.23
2018-12-30T08:08:44.607Z,1020.29
2018-12-30T08:09:48.735Z,1020.25
2018-12-30T08:10:53.024Z,1020.30
2018-12-30T08:11:57.193Z,1020.27
2018-12-30T08:13:01.316Z,1020.26
2018-12-30T08:14:05.575Z,1020.33
2018-12-30T08:15:09.765Z,1020.35
2018-12-30T08:16:13.924Z,1020.32
2018-12-30T08:17:18.147Z,1020.35
2018-12-30T08:18:22.327Z,1020.38
2018-12-30T08:19:26.509Z,1020.38
2018-12-30T08:20:30.749Z,1020.44
2018-12-30T08:21:35.745Z,1020.45
2018-12-30T08:22:39.563Z,1020.45
2018-12-30T08:23:43.685Z,1020.45
2018-12-30T08:24:47.972Z,1020.47
2018-12-30T08:25:52.106Z,1020.52
2018-12-30T08:26:56.283Z,1020.48
2018-12-30T08:28:00.511Z,1020.49
2018-12-30T08:29:04.727Z,1020.51
2018-12-30T08:30:08.924Z,1020.52
2018-12-30T08:31:13.104Z,1020.57
2018-12-30T08:32:17.342Z,1020.55
2018-12-30T08:33:21.457Z,1020.56
2018-12-30T08:34:25.671Z,1020.55
2018-12-30T08:35:29.929Z,1020.58
2018-12-30T08:36:34.158Z,1020.57
2018-12-30T08:37:38.244Z,1020.64
2018-12-30T08:38:42.397Z,1020.61
2018-12-30T08:39:46.568Z,1020.60
2018-12-30T08:40:50.878Z,1020.60
2018-12-30T08:41:55.068Z,1020.62
2018-12-30T08:42:59.200Z,1020.62
2018-12-30T08:44:03.422Z,1020.63
2018-12-30T08:45:07.633Z,1020.62
2018-12-30T08:46:11.863Z,1020.64
2018-12-30T08:47:15.974Z,1020.69
2018-12-30T08:48:20.259Z,1020.70
2018-12-30T08:49:24.345Z,1020.67
2018-12-30T08:50:28.541Z,1020.65
2018-12-30T08:51:32.844Z,1020.62
2018-12-30T08:52:37.073Z,1020.66
2018-12-30T08:53:41.278Z,1020.68
2018-12-30T08:54:45.513Z,1020.70
2018-12-30T08:55:49.743Z,1020.63
2018-12-30T08:56:53.985Z,1020.66
2018-12-30T08:57:58.559Z,1020.64
2018-12-30T08:59:02.331Z,1020.67
2018-12-30T09:00:06.567Z,1020.66
2018-12-30T09:01:10.809Z,1020.65
2018-12-30T09:02:14.997Z,1020.67
2018-12-30T09:03:19.168Z,1020.66
2018-12-30T09:04:23.497Z,1020.73
2018-12-30T09:05:27.631Z,1020.73
2018-12-30T09:06:31.797Z,1020.73
2018-12-30T09:07:36.036Z,1020.76
2018-12-30T09:08:40.165Z,1020.76
2018-12-30T09:09:44.352Z,1020.76
2018-12-30T09:10:48.622Z,1020.75
2018-12-30T09:11:52.848Z,1020.77
2018-12-30T09:12:57.626Z,1020.81
2018-12-30T09:14:01.184Z,1020.78
2018-12-30T09:15:05.366Z,1020.77
2018-12-30T09:16:09.503Z,1020.79
2018-12-30T09:17:13.815Z,1020.80
2018-12-30T09:18:18.039Z,1020.81
2018-12-30T09:19:22.258Z,1020.79
2018-12-30T09:20:26.330Z,1020.78
2018-12-30T09:21:30.605Z,1020.79
2018-12-30T09:22:34.826Z,1020.79
2018-12-30T09:23:39.049Z,1020.77
2018-12-30T09:24:43.153Z,1020.82
2018-12-30T09:25:47.474Z,1020.89
2018-12-30T09:26:51.712Z,1020.87
2018-12-30T09:27:55.940Z,1020.82
2018-12-30T09:29:00.194Z,1020.90
2018-12-30T09:30:04.448Z,1020.83
2018-12-30T09:31:08.569Z,1020.84
2018-12-30T09:32:12.806Z,1020.87
2018-12-30T09:33:16.978Z,1020.88
2018-12-30T09:34:21.245Z,1020.90
2018-12-30T09:35:25.485Z,1020.94
2018-12-30T09:36:29.697Z,1020.98
2018-12-30T09:37:33.837Z,1020.97
2018-12-30T09:38:38.073Z,1020.97
2018-12-30T09:39:42.147Z,1020.94
2018-12-30T09:40:46.420Z,1020.97
2018-12-30T09:41:50.589Z,1020.99
2018-12-30T09:42:54.829Z,1020.96
2018-12-30T09:43:59.072Z,1020.99
2018-12-30T09:45:03.214Z,1020.95
2018-12-30T09:46:07.492Z,1020.98
2018-12-30T09:47:11.625Z,1021.03
2018-12-30T09:48:15.876Z,1021.07
2018-12-30T09:49:20.061Z,1021.08
2018-12-30T09:50:24.319Z,1021.08
2018-12-30T09:51:28.556Z,1021.15
2018-12-30T09:52:32.808Z,1021.13
2018-12-30T09:53:36.975Z,1021.13
2018-12-30T09:54:41.192Z,1021.13
2018-12-30T09:55:45.363Z,1021.10
2018-12-30T09:56:49.656Z,1021.09
2018-12-30T09:57:53.780Z,1021.09
2018-12-30T09:58:57.916Z,1021.07
2018-12-30T10:00:02.228Z,1021.07
2018-12-30T10:01:06.323Z,1021.10
2018-12-30T10:02:10.619Z,1021.09
2018-12-30T10:03:14.791Z,1021.10
2018-12-30T10:04:19.046Z,1021.11
2018-12-30T10:05:23.153Z,1021.07
2018-12-30T10:06:27.403Z,1021.10
2018-12-30T10:07:31.655Z,1021.10
2018-12-30T10:08:35.859Z,1021.11
2018-12-30T10:09:40.043Z,1021.08
2018-12-30T10:10:44.279Z,1021.09
2018-12-30T10:11:48.371Z,1021.08
2018-12-30T10:12:52.684Z,1021.09
2018-12-30T10:13:56.835Z,1021.11
2018-12-30T10:15:09.260Z,1021.14
2018-12-30T10:16:05.308Z,1021.11
2018-12-30T10:17:09.505Z,1021.09
2018-12-30T10:18:13.758Z,1021.17
2018-12-30T10:19:17.880Z,1021.10
2018-12-30T10:20:22.171Z,1021.11
2018-12-30T10:21:26.303Z,1021.10
2018-12-30T10:22:30.543Z,1021.11
2018-12-30T10:23:34.678Z,1021.08
2018-12-30T10:24:39.018Z,1021.11
2018-12-30T10:25:43.127Z,1021.15
2018-12-30T10:26:47.305Z,1021.11
2018-12-30T10:27:51.582Z,1021.15
2018-12-30T10:28:55.803Z,1021.16
2018-12-30T10:30:00.051Z,1021.18
2018-12-30T10:31:04.153Z,1021.14
2018-12-30T10:32:08.433Z,1021.14
2018-12-30T10:33:12.695Z,1021.13
2018-12-30T10:34:16.908Z,1021.17
2018-12-30T10:35:21.134Z,1021.19
2018-12-30T10:36:25.300Z,1021.22
2018-12-30T10:37:29.592Z,1021.24
2018-12-30T10:38:33.742Z,1021.22
2018-12-30T10:39:37.983Z,1021.25
2018-12-30T10:40:42.270Z,1021.21
2018-12-30T10:41:46.428Z,1021.24
2018-12-30T10:42:50.583Z,1021.17
2018-12-30T10:43:54.720Z,1021.19
2018-12-30T10:44:58.929Z,1021.14
2018-12-30T10:46:03.019Z,1021.15
2018-12-30T10:47:07.245Z,1021.16
2018-12-30T10:48:11.570Z,1021.20
2018-12-30T10:49:15.768Z,1021.16
2018-12-30T10:50:19.876Z,1021.20
2018-12-30T10:51:24.965Z,1021.25
2018-12-30T10:52:28.773Z,1021.28
2018-12-30T10:53:33.047Z,1021.23
2018-12-30T10:54:37.172Z,1021.21
2018-12-30T10:55:41.562Z,1021.19
2018-12-30T10:56:45.718Z,1021.22
2018-12-30T10:57:49.855Z,1021.25
2018-12-30T10:58:54.922Z,1021.22
2018-12-30T10:59:58.791Z,1021.24
2018-12-30T11:01:03.003Z,1021.26
2018-12-30T11:02:07.130Z,1021.24
2018-12-30T11:03:11.309Z,1021.25
2018-12-30T11:04:15.590Z,1021.26
2018-12-30T11:05:19.780Z,1021.21
2018-12-30T11:06:24.072Z,1021.17
2018-12-30T11:07:28.170Z,1021.22
2018-12-30T11:08:32.499Z,1021.21
2018-12-30T11:09:36.703Z,1021.24
2018-12-30T11:10:40.829Z,1021.24
2018-12-30T11:11:45.135Z,1021.20
2018-12-30T11:12:49.373Z,1021.19
2018-12-30T11:13:53.662Z,1021.19
2018-12-30T11:14:57.934Z,1021.19
2018-12-30T11:16:02.031Z,1021.18
2018-12-30T11:17:06.214Z,1021.17
2018-12-30T11:18:10.513Z,1021.15
2018-12-30T11:19:16.438Z,1021.20
2018-12-30T11:20:19.500Z,1021.22
2018-12-30T11:21:23.644Z,1021.22
2018-12-30T11:22:28.686Z,1021.19
2018-12-30T11:23:32.611Z,1021.17
2018-12-30T11:24:36.835Z,1021.23
2018-12-30T11:25:40.944Z,1021.24
2018-12-30T11:26:45.113Z,1021.28
2018-12-30T11:27:49.395Z,1021.20
2018-12-30T11:28:53.630Z,1021.21
2018-12-30T11:29:57.867Z,1021.21
2018-12-30T11:31:02.009Z,1021.26
2018-12-30T11:32:06.298Z,1021.23
2018-12-30T11:33:10.509Z,1021.19
2018-12-30T11:34:14.746Z,1021.13
2018-12-30T11:35:18.976Z,1021.16
2018-12-30T11:36:23.138Z,1021.19
2018-12-30T11:37:27.344Z,1021.21
2018-12-30T11:38:31.503Z,1021.18
2018-12-30T11:39:35.794Z,1021.20
2018-12-30T11:40:39.935Z,1021.15
2018-12-30T11:41:44.261Z,1021.26
2018-12-30T11:42:48.480Z,1021.31
2018-12-30T11:43:52.664Z,1021.30
2018-12-30T11:44:56.896Z,1021.31
2018-12-30T11:46:01.030Z,1021.32
2018-12-30T11:47:05.329Z,1021.28
2018-12-30T11:48:09.543Z,1021.28
2018-12-30T11:49:13.792Z,1021.24
2018-12-30T11:50:17.957Z,1021.25
2018-12-30T11:51:22.057Z,1021.29
2018-12-30T11:52:26.339Z,1021.22
2018-12-30T11:53:30.567Z,1021.27
2018-12-30T11:54:34.789Z,1021.35
2018-12-30T11:55:38.898Z,1021.28
2018-12-30T11:56:43.213Z,1021.29
2018-12-30T11:57:47.329Z,1021.28
2018-12-30T11:58:51.555Z,1021.29
2018-12-30T11:59:55.760Z,1021.29
2018-12-30T12:01:00.066Z,1021.32
2018-12-30T12:02:04.202Z,1021.31
2018-12-30T12:03:08.397Z,1021.32
2018-12-30T12:04:12.591Z,1021.33
2018-12-30T12:05:16.787Z,1021.39
2018-12-30T12:06:21.011Z,1021.40
2018-12-30T12:07:25.251Z,1021.43
2018-12-30T12:08:29.419Z,1021.44
2018-12-30T12:09:33.556Z,1021.43
2018-12-30T12:10:37.760Z,1021.43
2018-12-30T12:11:42.061Z,1021.50
2018-12-30T12:12:49.111Z,1021.46
2018-12-30T12:13:50.445Z,1021.46
2018-12-30T12:14:54.631Z,1021.47
2018-12-30T12:15:58.890Z,1021.45
2018-12-30T12:17:03.113Z,1021.46
2018-12-30T12:18:07.280Z,1021.41
2018-12-30T12:19:11.552Z,1021.51
2018-12-30T12:20:15.767Z,1021.53
2018-12-30T12:21:20.011Z,1021.55
2018-12-30T12:22:24.265Z,1021.57
2018-12-30T12:23:28.493Z,1021.62
2018-12-30T12:24:32.693Z,1021.58
2018-12-30T12:25:36.837Z,1021.57
2018-12-30T12:26:41.044Z,1021.53
2018-12-30T12:27:45.301Z,1021.57
2018-12-30T12:28:49.458Z,1021.55
2018-12-30T12:29:53.661Z,1021.60
2018-12-30T12:30:57.920Z,1021.58
2018-12-30T12:32:02.186Z,1021.55
2018-12-30T12:33:06.326Z,1021.54
2018-12-30T12:34:10.601Z,1021.52
2018-12-30T12:35:14.867Z,1021.56
2018-12-30T12:36:19.095Z,1021.57
2018-12-30T12:37:23.329Z,1021.62
2018-12-30T12:38:27.519Z,1021.60
2018-12-30T12:39:31.637Z,1021.56
2018-12-30T12:40:35.842Z,1021.61
2018-12-30T12:41:40.165Z,1021.57
2018-12-30T12:42:44.375Z,1021.57
2018-12-30T12:43:48.499Z,1021.59
2018-12-30T12:44:52.698Z,1021.59
2018-12-30T12:45:56.887Z,1021.65
2018-12-30T12:47:01.195Z,1021.68
2018-12-30T12:48:05.382Z,1021.63
2018-12-30T12:49:09.554Z,1021.65
2018-12-30T12:50:13.846Z,1021.66
2018-12-30T12:51:18.053Z,1021.73
2018-12-30T12:52:22.216Z,1021.73
2018-12-30T12:53:26.474Z,1021.73
2018-12-30T12:54:32.316Z,1021.75
2018-12-30T12:55:34.873Z,1021.75
2018-12-30T12:56:38.985Z,1021.80